Weather History for KVSH - July, 2013

Change the Weather History Date:

Friday, July 26, 2013

  Actual Average (KMAI) Record (KMAI)
Temperature  
Mean Temperature 86 °F 82 °F  
Max Temperature 93 °F 92 °F 98 °F (2010)
Min Temperature 80 °F 73 °F 70 °F (1999)
Degree Days  
Heating Degree Days 0    
Month to date heating degree days  
Since 1 June heating degree days  
Since 1 July heating degree days  
Cooling Degree Days 22    
Month to date cooling degree days  
Year to date cooling degree days  
Since 1 June cooling degree days  
Growing Degree Days 36 (Base 50)    
Moisture  
Dew Point 68 °F    
Average Humidity 55    
Maximum Humidity 74    
Minimum Humidity 41    
Precipitation  
Precipitation 0.00 in 0.15 in 1.55 in (2012)
Month to date precipitation 4.38  
Year to date precipitation 32.17  
Sea Level Pressure  
Sea Level Pressure 30.03 in    
Wind  
Wind Speed 4 mph (NNW)    
Max Wind Speed 9 mph    
Max Gust Speed -    
Visibility 10 miles    
Events      
T = Trace of Precipitation, MM = Missing Value Source: NWS Daily Summary

Daily Weather History Graph

Daily Weather History Graph

Search for Another Location

Airport or City:

Trip Planner

Search our weather history database for the weather conditions in past years. The results will help you decide how hot, cold, wet, or windy it might be!

Date:

Astronomy

Jul. 26, 2013 Rise Set
Actual Time 5:56 AM CDT 7:41 PM CDT
Civil Twilight 5:29 AM CDT 8:07 PM CDT
Nautical Twilight 4:57 AM CDT 8:39 PM CDT
Astronomical Twilight 4:24 AM CDT 9:13 PM CDT
Moon 10:19 PM CDT (7/26) 10:09 AM CDT (7/26)
Length of Visible Light 14h 37m
Length of Day
13h 44m
Waning Gibbous, 80% of the Moon is Illuminated
Jul 26
Waning Gibbous
Jul 29
Last Quarter
Aug 6
New
Aug 14
First Quarter
Aug 20
Full

Hourly Weather History & Observations

Time (CDT) Temp. Heat Index Dew Point Humidity Pressure Visibility Wind Dir Wind Speed Gust Speed Precip Events Conditions
12:15 AM 87.8 °F 93.8 °F 71.6 °F 58% 30.03 in 10.0 mi Calm Calm - N/A   Clear
12:35 AM 86.0 °F 91.8 °F 71.6 °F 62% 30.03 in 10.0 mi SW 3.5 mph - N/A   Clear
12:55 AM 84.2 °F 89.6 °F 71.6 °F 66% 30.03 in 10.0 mi Calm Calm - N/A   Clear
1:15 AM 84.2 °F 89.6 °F 71.6 °F 66% 30.03 in 10.0 mi SSW 5.8 mph - N/A   Clear
1:35 AM 84.2 °F 89.6 °F 71.6 °F 66% 30.03 in 10.0 mi SW 3.5 mph - N/A   Clear
1:55 AM 82.4 °F 88.2 °F 73.4 °F 74% 30.02 in 10.0 mi SSW 4.6 mph - N/A   Clear
2:15 AM 82.4 °F 88.2 °F 73.4 °F 74% 30.02 in 10.0 mi Calm Calm - N/A   Clear
2:35 AM 82.4 °F 86.3 °F 69.8 °F 66% 30.02 in 10.0 mi NE 6.9 mph - N/A   Clear
2:55 AM 82.4 °F 85.4 °F 68.0 °F 62% 30.02 in 10.0 mi ENE 6.9 mph - N/A   Clear
3:15 AM 82.4 °F 84.6 °F 66.2 °F 58% 30.02 in 10.0 mi NE 6.9 mph - N/A   Clear
3:35 AM 82.4 °F 84.6 °F 66.2 °F 58% 30.02 in 10.0 mi NE 6.9 mph - N/A   Clear
3:55 AM 82.4 °F 85.4 °F 68.0 °F 62% 30.02 in 10.0 mi NE 6.9 mph - N/A   Clear
4:15 AM 82.4 °F 84.6 °F 66.2 °F 58% 30.02 in 10.0 mi NE 4.6 mph - N/A   Clear
4:35 AM 80.6 °F 83.2 °F 68.0 °F 65% 30.02 in 10.0 mi NE 4.6 mph - N/A   Clear
4:55 AM 80.6 °F 83.2 °F 68.0 °F 65% 30.03 in 10.0 mi NNE 4.6 mph - N/A   Clear
5:15 AM 80.6 °F 82.7 °F 66.2 °F 61% 30.03 in 10.0 mi NE 4.6 mph - N/A   Clear
5:35 AM 80.6 °F 83.2 °F 68.0 °F 65% 30.03 in 10.0 mi NE 5.8 mph - N/A   Clear
5:55 AM 80.6 °F 83.2 °F 68.0 °F 65% 30.03 in 10.0 mi NE 5.8 mph - N/A   Clear
6:15 AM 80.6 °F 83.2 °F 68.0 °F 65% 30.04 in 10.0 mi NE 4.6 mph - N/A   Clear
6:35 AM 80.6 °F 82.7 °F 66.2 °F 61% 30.04 in 10.0 mi Calm Calm - N/A   Clear
6:55 AM 80.6 °F 82.7 °F 66.2 °F 61% 30.04 in 10.0 mi Calm Calm - N/A   Clear
7:15 AM 80.6 °F 82.7 °F 66.2 °F 61% 30.05 in 10.0 mi North 4.6 mph - N/A   Clear
7:35 AM 80.6 °F 82.7 °F 66.2 °F 61% 30.05 in 10.0 mi North 4.6 mph - N/A   Clear
7:55 AM 82.4 °F 85.4 °F 68.0 °F 62% 30.06 in 10.0 mi North 4.6 mph - N/A   Clear
8:15 AM 82.4 °F 85.4 °F 68.0 °F 62% 30.06 in 10.0 mi North 3.5 mph - N/A   Clear
8:35 AM 82.4 °F 85.4 °F 68.0 °F 62% 30.07 in 10.0 mi NE 4.6 mph - N/A   Clear
8:55 AM 84.2 °F 88.4 °F 69.8 °F 62% 30.07 in 10.0 mi Calm Calm - N/A   Clear
9:15 AM 86.0 °F 91.8 °F 71.6 °F 62% 30.07 in 10.0 mi Calm Calm - N/A   Clear
9:35 AM 84.2 °F 89.6 °F 71.6 °F 66% 30.07 in 10.0 mi Calm Calm - N/A   Clear
9:55 AM 87.8 °F 92.6 °F 69.8 °F 55% 30.07 in 10.0 mi North 5.8 mph - N/A   Clear
10:15 AM 87.8 °F 93.8 °F 71.6 °F 58% 30.07 in 10.0 mi NW 6.9 mph - N/A   Clear
10:35 AM 87.8 °F 92.6 °F 69.8 °F 55% 30.07 in 10.0 mi WNW 4.6 mph - N/A   Clear
10:55 AM 89.6 °F 93.4 °F 68.0 °F 49% 30.07 in 10.0 mi WNW 6.9 mph - N/A   Clear
11:15 AM 89.6 °F 92.2 °F 66.2 °F 46% 30.07 in 10.0 mi WNW 6.9 mph - N/A   Clear
11:35 AM 89.6 °F 92.2 °F 66.2 °F 46% 30.08 in 10.0 mi North 6.9 mph - N/A   Clear
11:55 AM 89.6 °F 92.2 °F 66.2 °F 46% 30.08 in 10.0 mi NW 5.8 mph - N/A   Clear
12:15 PM 89.6 °F 91.1 °F 64.4 °F 43% 30.07 in 10.0 mi NW 6.9 mph - N/A   Clear
12:35 PM 89.6 °F 92.2 °F 66.2 °F 46% 30.07 in 10.0 mi NNW 8.1 mph - N/A   Clear
12:55 PM 89.6 °F 92.2 °F 66.2 °F 46% 30.06 in 10.0 mi NW 5.8 mph - N/A   Clear
1:15 PM 89.6 °F 92.2 °F 66.2 °F 46% 30.05 in 10.0 mi NNW 4.6 mph - N/A   Clear
1:35 PM 89.6 °F 92.2 °F 66.2 °F 46% 30.05 in 10.0 mi NNW 8.1 mph - N/A   Clear
1:55 PM 89.6 °F 92.2 °F 66.2 °F 46% 30.04 in 10.0 mi WNW 6.9 mph - N/A   Clear
2:15 PM 91.4 °F 94.0 °F 66.2 °F 43% 30.03 in 10.0 mi WNW 6.9 mph - N/A   Clear
2:35 PM 91.4 °F 94.0 °F 66.2 °F 43% 30.03 in 10.0 mi NW 6.9 mph - N/A   Clear
2:55 PM 91.4 °F 94.0 °F 66.2 °F 43% 30.02 in 10.0 mi North 8.1 mph - N/A   Clear
3:15 PM 91.4 °F 94.0 °F 66.2 °F 43% 30.02 in 10.0 mi NW 5.8 mph - N/A   Clear
3:35 PM 93.2 °F 96.2 °F 66.2 °F 41% 30.02 in 10.0 mi NNW 4.6 mph - N/A   Clear
3:55 PM 93.2 °F 96.2 °F 66.2 °F 41% 30.01 in 10.0 mi NNW 4.6 mph - N/A   Clear
4:15 PM 91.4 °F 94.0 °F 66.2 °F 43% 30.01 in 10.0 mi NE 6.9 mph - N/A   Clear
4:35 PM 91.4 °F 94.0 °F 66.2 °F 43% 30.01 in 10.0 mi North 4.6 mph - N/A   Clear
4:55 PM 91.4 °F 93.2 °F 64.4 °F 41% 30.00 in 10.0 mi NNE 5.8 mph - N/A   Clear
5:15 PM 91.4 °F 94.0 °F 66.2 °F 43% 30.00 in 10.0 mi North 4.6 mph - N/A   Clear
5:35 PM 91.4 °F 94.0 °F 66.2 °F 43% 29.99 in 10.0 mi NNE 9.2 mph - N/A   Clear
5:55 PM 91.4 °F 94.0 °F 66.2 °F 43% 29.99 in 10.0 mi NNW 4.6 mph - N/A   Clear
6:15 PM 91.4 °F 94.0 °F 66.2 °F 43% 29.98 in 10.0 mi NNW 4.6 mph - N/A   Clear
6:35 PM 91.4 °F 94.0 °F 66.2 °F 43% 29.98 in 10.0 mi NNE 4.6 mph - N/A   Clear
6:55 PM 91.4 °F 94.0 °F 66.2 °F 43% 29.98 in 10.0 mi Calm Calm - N/A   Clear
7:15 PM 91.4 °F 94.0 °F 66.2 °F 43% 29.98 in 10.0 mi NW 3.5 mph - N/A   Clear
7:35 PM 89.6 °F 92.2 °F 66.2 °F 46% 29.98 in 10.0 mi North 3.5 mph - N/A   Clear
7:55 PM 89.6 °F 92.2 °F 66.2 °F 46% 29.98 in 10.0 mi North 3.5 mph - N/A   Clear
8:15 PM 89.6 °F 92.2 °F 66.2 °F 46% 29.98 in 10.0 mi Calm Calm - N/A   Clear
8:35 PM 89.6 °F 94.7 °F 69.8 °F 52% 29.99 in 10.0 mi SSW 6.9 mph - N/A   Scattered Clouds
8:55 PM 87.8 °F 93.8 °F 71.6 °F 58% 29.99 in 10.0 mi SSW 8.1 mph - N/A   Partly Cloudy
9:15 PM 87.8 °F 93.8 °F 71.6 °F 58% 30.00 in 10.0 mi SSW 4.6 mph - N/A   Clear
9:35 PM 87.8 °F 93.8 °F 71.6 °F 58% 29.99 in 10.0 mi SSW 5.8 mph - N/A   Clear
9:55 PM 87.8 °F 93.8 °F 71.6 °F 58% 29.98 in 10.0 mi South 6.9 mph - N/A   Clear
10:15 PM 87.8 °F 93.8 °F 71.6 °F 58% 29.99 in 10.0 mi SSW 6.9 mph - N/A   Clear
10:35 PM 86.0 °F 91.8 °F 71.6 °F 62% 29.99 in 10.0 mi SSW 5.8 mph - N/A   Clear
10:55 PM 86.0 °F 93.4 °F 73.4 °F 66% 29.99 in 10.0 mi SW 5.8 mph - N/A   Clear
11:15 PM 84.2 °F 90.9 °F 73.4 °F 70% 29.99 in 10.0 mi SW 5.8 mph - N/A   Clear
11:35 PM 86.0 °F 93.4 °F 73.4 °F 66% 29.99 in 10.0 mi SSW 4.6 mph - N/A   Clear
11:55 PM 84.2 °F 90.9 °F 73.4 °F 70% 29.99 in 10.0 mi SW 4.6 mph - N/A   Clear